sensor_id;sensor_type;location;lat;lon;timestamp;pressure;altitude;pressure_sealevel;temperature;humidity
77159;BME280;66129;45.890;13.714;2023-01-16T00:02:08;100052.28;;;9.53;95.08
77159;BME280;66129;45.890;13.714;2023-01-16T00:04:33;100012.91;;;9.39;95.08
77159;BME280;66129;45.890;13.714;2023-01-16T00:07:00;100017.97;;;9.36;95.52
77159;BME280;66129;45.890;13.714;2023-01-16T00:09:25;100023.97;;;9.38;95.33
77159;BME280;66129;45.890;13.714;2023-01-16T00:11:51;100025.59;;;9.33;95.75
77159;BME280;66129;45.890;13.714;2023-01-16T00:14:16;100033.31;;;9.38;95.73
77159;BME280;66129;45.890;13.714;2023-01-16T00:16:42;100038.47;;;9.39;95.78
77159;BME280;66129;45.890;13.714;2023-01-16T00:19:07;100041.91;;;9.41;95.62
77159;BME280;66129;45.890;13.714;2023-01-16T00:21:33;100017.88;;;9.29;95.43
77159;BME280;66129;45.890;13.714;2023-01-16T00:23:59;100044.38;;;9.35;95.48
77159;BME280;66129;45.890;13.714;2023-01-16T00:26:26;100027.22;;;9.27;95.78
77159;BME280;66129;45.890;13.714;2023-01-16T00:28:52;99998.09;;;9.17;95.21
77159;BME280;66129;45.890;13.714;2023-01-16T00:31:17;100021.94;;;9.16;95.82
77159;BME280;66129;45.890;13.714;2023-01-16T00:33:43;99991.09;;;9.01;96.01
77159;BME280;66129;45.890;13.714;2023-01-16T00:36:10;99985.88;;;8.94;95.96
77159;BME280;66129;45.890;13.714;2023-01-16T00:38:36;99985.00;;;8.92;96.18
77159;BME280;66129;45.890;13.714;2023-01-16T00:41:01;100003.13;;;9.10;96.00
77159;BME280;66129;45.890;13.714;2023-01-16T00:43:27;100003.97;;;9.07;95.74
77159;BME280;66129;45.890;13.714;2023-01-16T00:45:52;99991.22;;;9.12;94.97
77159;BME280;66129;45.890;13.714;2023-01-16T00:48:18;99983.59;;;9.15;94.89
77159;BME280;66129;45.890;13.714;2023-01-16T00:50:43;99962.94;;;9.00;94.63
77159;BME280;66129;45.890;13.714;2023-01-16T00:53:09;99991.19;;;9.09;95.18
77159;BME280;66129;45.890;13.714;2023-01-16T00:55:35;99957.66;;;8.86;95.60
77159;BME280;66129;45.890;13.714;2023-01-16T00:58:03;99979.16;;;9.02;94.74
77159;BME280;66129;45.890;13.714;2023-01-16T01:00:28;99967.06;;;8.90;94.20
77159;BME280;66129;45.890;13.714;2023-01-16T01:02:54;99960.38;;;8.97;93.44
77159;BME280;66129;45.890;13.714;2023-01-16T01:05:19;99958.66;;;8.97;93.84
77159;BME280;66129;45.890;13.714;2023-01-16T01:07:45;99941.44;;;8.84;94.08
77159;BME280;66129;45.890;13.714;2023-01-16T01:10:11;99974.88;;;8.98;94.59
77159;BME280;66129;45.890;13.714;2023-01-16T01:12:36;99951.56;;;8.76;95.13
77159;BME280;66129;45.890;13.714;2023-01-16T01:15:02;99978.97;;;8.87;95.44
77159;BME280;66129;45.890;13.714;2023-01-16T01:17:28;99958.38;;;8.78;95.58
77159;BME280;66129;45.890;13.714;2023-01-16T01:19:53;99944.16;;;8.95;94.77
77159;BME280;66129;45.890;13.714;2023-01-16T01:22:19;99954.50;;;9.07;94.63
77159;BME280;66129;45.890;13.714;2023-01-16T01:24:48;99955.47;;;9.15;94.11
77159;BME280;66129;45.890;13.714;2023-01-16T01:27:15;99955.56;;;9.21;93.64
77159;BME280;66129;45.890;13.714;2023-01-16T01:29:40;99954.59;;;9.11;93.96
77159;BME280;66129;45.890;13.714;2023-01-16T01:32:06;99933.13;;;9.00;94.21
77159;BME280;66129;45.890;13.714;2023-01-16T01:34:32;99931.63;;;9.16;94.18
77159;BME280;66129;45.890;13.714;2023-01-16T01:37:04;99915.28;;;9.05;93.63
77159;BME280;66129;45.890;13.714;2023-01-16T01:39:29;99929.91;;;9.13;94.00
77159;BME280;66129;45.890;13.714;2023-01-16T01:41:56;99932.44;;;9.12;93.89
77159;BME280;66129;45.890;13.714;2023-01-16T01:47:10;99947.56;;;8.95;94.69
77159;BME280;66129;45.890;13.714;2023-01-16T01:49:37;99928.88;;;9.01;91.56
77159;BME280;66129;45.890;13.714;2023-01-16T01:52:03;99922.56;;;8.75;89.74
77159;BME280;66129;45.890;13.714;2023-01-16T01:54:38;99900.19;;;8.56;86.94
77159;BME280;66129;45.890;13.714;2023-01-16T01:57:18;99907.63;;;8.38;86.42
77159;BME280;66129;45.890;13.714;2023-01-16T01:59:57;99925.78;;;8.04;86.36
77159;BME280;66129;45.890;13.714;2023-01-16T02:02:26;99934.97;;;7.96;87.44
77159;BME280;66129;45.890;13.714;2023-01-16T02:04:54;99898.69;;;7.64;85.08
77159;BME280;66129;45.890;13.714;2023-01-16T02:07:24;99915.66;;;7.62;86.72
77159;BME280;66129;45.890;13.714;2023-01-16T02:10:01;99917.13;;;7.48;85.43
77159;BME280;66129;45.890;13.714;2023-01-16T02:12:28;99902.25;;;7.26;86.77
77159;BME280;66129;45.890;13.714;2023-01-16T02:14:54;99891.75;;;7.09;86.47
77159;BME280;66129;45.890;13.714;2023-01-16T02:17:21;99917.34;;;7.15;87.43
77159;BME280;66129;45.890;13.714;2023-01-16T02:20:21;99920.66;;;7.10;86.82
77159;BME280;66129;45.890;13.714;2023-01-16T02:28:54;99900.47;;;6.79;87.42
77159;BME280;66129;45.890;13.714;2023-01-16T02:31:55;99913.00;;;6.70;87.24
77159;BME280;66129;45.890;13.714;2023-01-16T02:34:46;99920.59;;;6.67;87.04
77159;BME280;66129;45.890;13.714;2023-01-16T02:42:45;99919.59;;;6.59;87.23
77159;BME280;66129;45.890;13.714;2023-01-16T02:45:29;99912.69;;;6.55;88.13
77159;BME280;66129;45.890;13.714;2023-01-16T02:48:08;99906.66;;;6.50;87.75
77159;BME280;66129;45.890;13.714;2023-01-16T02:50:57;99910.69;;;6.42;87.73
77159;BME280;66129;45.890;13.714;2023-01-16T02:57:12;99907.41;;;6.46;87.32
77159;BME280;66129;45.890;13.714;2023-01-16T02:59:41;99912.28;;;6.37;87.96
77159;BME280;66129;45.890;13.714;2023-01-16T03:02:08;99904.50;;;6.30;87.74
77159;BME280;66129;45.890;13.714;2023-01-16T03:04:48;99916.63;;;6.41;86.65
77159;BME280;66129;45.890;13.714;2023-01-16T03:23:54;99888.47;;;6.34;86.35
77159;BME280;66129;45.890;13.714;2023-01-16T03:26:28;99893.56;;;6.34;85.99
77159;BME280;66129;45.890;13.714;2023-01-16T03:29:08;99883.31;;;6.32;85.93
77159;BME280;66129;45.890;13.714;2023-01-16T03:31:53;99876.47;;;6.28;86.26
77159;BME280;66129;45.890;13.714;2023-01-16T03:36:59;99871.25;;;6.22;86.61
77159;BME280;66129;45.890;13.714;2023-01-16T03:39:30;99868.69;;;6.22;85.86
77159;BME280;66129;45.890;13.714;2023-01-16T03:42:01;99869.59;;;6.24;85.41
77159;BME280;66129;45.890;13.714;2023-01-16T03:44:33;99851.72;;;6.21;85.39
77159;BME280;66129;45.890;13.714;2023-01-16T03:47:01;99850.00;;;6.22;84.95
77159;BME280;66129;45.890;13.714;2023-01-16T03:49:40;99844.09;;;6.23;84.66
77159;BME280;66129;45.890;13.714;2023-01-16T03:52:10;99861.22;;;6.30;83.62
77159;BME280;66129;45.890;13.714;2023-01-16T03:55:05;99862.13;;;6.32;83.56
77159;BME280;66129;45.890;13.714;2023-01-16T04:01:04;99862.34;;;6.42;83.17
77159;BME280;66129;45.890;13.714;2023-01-16T04:03:35;99850.50;;;6.44;82.54
77159;BME280;66129;45.890;13.714;2023-01-16T04:06:24;99846.53;;;6.55;82.03
77159;BME280;66129;45.890;13.714;2023-01-16T04:08:54;99831.34;;;6.61;81.17
77159;BME280;66129;45.890;13.714;2023-01-16T04:11:23;99822.78;;;6.56;80.77
77159;BME280;66129;45.890;13.714;2023-01-16T04:13:53;99821.16;;;6.61;81.09
77159;BME280;66129;45.890;13.714;2023-01-16T04:16:21;99824.78;;;6.72;79.88
77159;BME280;66129;45.890;13.714;2023-01-16T04:18:49;99797.41;;;6.62;80.18
77159;BME280;66129;45.890;13.714;2023-01-16T04:21:18;99767.56;;;6.54;79.21
77159;BME280;66129;45.890;13.714;2023-01-16T04:23:44;99789.06;;;6.69;79.38
77159;BME280;66129;45.890;13.714;2023-01-16T04:26:09;99772.06;;;6.68;79.47
77159;BME280;66129;45.890;13.714;2023-01-16T04:28:35;99771.34;;;6.73;79.14
77159;BME280;66129;45.890;13.714;2023-01-16T04:31:00;99749.94;;;6.64;78.99
77159;BME280;66129;45.890;13.714;2023-01-16T04:33:26;99756.09;;;6.76;77.98
77159;BME280;66129;45.890;13.714;2023-01-16T04:35:51;99747.69;;;6.79;76.73
77159;BME280;66129;45.890;13.714;2023-01-16T04:38:17;99748.91;;;7.00;75.93
77159;BME280;66129;45.890;13.714;2023-01-16T04:40:42;99748.00;;;6.97;74.99
77159;BME280;66129;45.890;13.714;2023-01-16T04:43:07;99763.50;;;7.10;75.17
77159;BME280;66129;45.890;13.714;2023-01-16T04:45:33;99736.38;;;7.12;74.12
77159;BME280;66129;45.890;13.714;2023-01-16T04:47:58;99728.72;;;7.11;73.60
77159;BME280;66129;45.890;13.714;2023-01-16T04:50:24;99744.34;;;7.32;72.36
77159;BME280;66129;45.890;13.714;2023-01-16T04:52:49;99743.50;;;7.33;73.31
77159;BME280;66129;45.890;13.714;2023-01-16T04:55:15;99729.72;;;7.22;73.93
77159;BME280;66129;45.890;13.714;2023-01-16T04:57:41;99731.44;;;7.21;73.36
77159;BME280;66129;45.890;13.714;2023-01-16T05:00:08;99723.06;;;7.30;71.99
77159;BME280;66129;45.890;13.714;2023-01-16T05:02:35;99721.28;;;7.24;72.61
77159;BME280;66129;45.890;13.714;2023-01-16T05:05:00;99726.34;;;7.23;72.42
77159;BME280;66129;45.890;13.714;2023-01-16T05:07:26;99698.25;;;7.20;72.38
77159;BME280;66129;45.890;13.714;2023-01-16T05:09:53;99711.88;;;7.19;72.44
77159;BME280;66129;45.890;13.714;2023-01-16T05:12:19;99692.16;;;7.10;71.74
77159;BME280;66129;45.890;13.714;2023-01-16T05:14:44;99699.03;;;7.13;72.23
77159;BME280;66129;45.890;13.714;2023-01-16T05:17:10;99680.13;;;7.00;72.35
77159;BME280;66129;45.890;13.714;2023-01-16T05:19:35;99686.25;;;7.11;70.83
77159;BME280;66129;45.890;13.714;2023-01-16T05:22:01;99658.25;;;7.14;70.34
77159;BME280;66129;45.890;13.714;2023-01-16T05:24:26;99676.31;;;7.26;69.91
77159;BME280;66129;45.890;13.714;2023-01-16T05:26:51;99666.88;;;7.22;69.99
77159;BME280;66129;45.890;13.714;2023-01-16T05:29:17;99660.03;;;7.17;69.59
77159;BME280;66129;45.890;13.714;2023-01-16T05:31:42;99664.38;;;7.25;68.08
77159;BME280;66129;45.890;13.714;2023-01-16T05:34:08;99660.97;;;7.25;68.31
77159;BME280;66129;45.890;13.714;2023-01-16T05:36:34;99662.78;;;7.32;68.39
77159;BME280;66129;45.890;13.714;2023-01-16T05:39:00;99626.75;;;7.08;68.80
77159;BME280;66129;45.890;13.714;2023-01-16T05:41:25;99655.81;;;7.20;68.86
77159;BME280;66129;45.890;13.714;2023-01-16T05:43:51;99672.88;;;7.26;69.05
77159;BME280;66129;45.890;13.714;2023-01-16T05:46:16;99646.59;;;7.30;67.99
77159;BME280;66129;45.890;13.714;2023-01-16T05:48:43;99655.19;;;7.36;67.39
77159;BME280;66129;45.890;13.714;2023-01-16T05:51:08;99643.16;;;7.26;67.89
77159;BME280;66129;45.890;13.714;2023-01-16T05:53:33;99638.81;;;7.19;67.76
77159;BME280;66129;45.890;13.714;2023-01-16T05:56:07;99663.50;;;7.25;68.79
77159;BME280;66129;45.890;13.714;2023-01-16T05:58:33;99632.69;;;7.07;69.05
77159;BME280;66129;45.890;13.714;2023-01-16T06:00:59;99632.63;;;7.05;68.65
77159;BME280;66129;45.890;13.714;2023-01-16T06:03:24;99614.59;;;6.92;67.80
77159;BME280;66129;45.890;13.714;2023-01-16T06:05:53;99618.75;;;6.85;67.71
77159;BME280;66129;45.890;13.714;2023-01-16T06:08:18;99629.88;;;6.92;67.25
77159;BME280;66129;45.890;13.714;2023-01-16T06:10:43;99605.84;;;6.73;68.97
77159;BME280;66129;45.890;13.714;2023-01-16T06:13:14;99593.78;;;6.65;69.13
77159;BME280;66129;45.890;13.714;2023-01-16T06:15:39;99622.34;;;6.96;76.26
77159;BME280;66129;45.890;13.714;2023-01-16T06:18:05;99598.31;;;6.81;69.40
77159;BME280;66129;45.890;13.714;2023-01-16T06:20:30;99586.31;;;6.74;68.33
77159;BME280;66129;45.890;13.714;2023-01-16T06:22:55;99612.66;;;6.76;68.64
77159;BME280;66129;45.890;13.714;2023-01-16T06:25:21;99595.44;;;6.61;70.14
77159;BME280;66129;45.890;13.714;2023-01-16T06:27:51;99619.19;;;6.62;70.71
77159;BME280;66129;45.890;13.714;2023-01-16T06:30:17;99590.19;;;6.53;70.87
77159;BME280;66129;45.890;13.714;2023-01-16T06:32:43;99591.06;;;6.55;70.34
77159;BME280;66129;45.890;13.714;2023-01-16T06:35:09;99578.47;;;6.62;70.49
77159;BME280;66129;45.890;13.714;2023-01-16T06:37:35;99576.78;;;6.62;70.33
77159;BME280;66129;45.890;13.714;2023-01-16T06:40:01;99593.56;;;6.50;70.22
77159;BME280;66129;45.890;13.714;2023-01-16T06:42:26;99550.25;;;6.49;69.30
77159;BME280;66129;45.890;13.714;2023-01-16T06:44:52;99572.59;;;6.64;70.17
77159;BME280;66129;45.890;13.714;2023-01-16T06:47:17;99572.28;;;6.47;70.35
77159;BME280;66129;45.890;13.714;2023-01-16T06:49:43;99589.34;;;6.52;70.76
77159;BME280;66129;45.890;13.714;2023-01-16T06:52:08;99592.03;;;6.59;70.61
77159;BME280;66129;45.890;13.714;2023-01-16T06:54:34;99579.38;;;6.65;69.47
77159;BME280;66129;45.890;13.714;2023-01-16T06:56:59;99592.78;;;6.54;70.87
77159;BME280;66129;45.890;13.714;2023-01-16T06:59:25;99579.72;;;6.35;72.29
77159;BME280;66129;45.890;13.714;2023-01-16T07:01:50;99595.81;;;6.35;73.22
77159;BME280;66129;45.890;13.714;2023-01-16T07:04:16;99574.34;;;6.18;73.31
77159;BME280;66129;45.890;13.714;2023-01-16T07:06:41;99596.47;;;6.22;73.84
77159;BME280;66129;45.890;13.714;2023-01-16T07:09:09;99599.66;;;6.12;73.91
77159;BME280;66129;45.890;13.714;2023-01-16T07:11:34;99568.06;;;5.98;74.77
77159;BME280;66129;45.890;13.714;2023-01-16T07:14:00;99585.28;;;6.16;73.92
77159;BME280;66129;45.890;13.714;2023-01-16T07:16:44;99557.91;;;6.01;73.57
77159;BME280;66129;45.890;13.714;2023-01-16T07:19:28;99594.75;;;6.21;72.83
77159;BME280;66129;45.890;13.714;2023-01-16T07:22:11;99598.13;;;6.20;73.04
77159;BME280;66129;45.890;13.714;2023-01-16T07:24:57;99586.88;;;6.08;73.75
77159;BME280;66129;45.890;13.714;2023-01-16T07:27:23;99566.97;;;5.87;73.80
77159;BME280;66129;45.890;13.714;2023-01-16T07:29:49;99590.19;;;6.05;74.89
77159;BME280;66129;45.890;13.714;2023-01-16T07:32:15;99571.56;;;6.06;74.69
77159;BME280;66129;45.890;13.714;2023-01-16T07:34:41;99560.94;;;5.81;75.63
77159;BME280;66129;45.890;13.714;2023-01-16T07:37:07;99549.84;;;5.77;75.54
77159;BME280;66129;45.890;13.714;2023-01-16T07:39:35;99598.69;;;6.06;75.98
77159;BME280;66129;45.890;13.714;2023-01-16T07:42:05;99579.19;;;6.06;75.74
77159;BME280;66129;45.890;13.714;2023-01-16T07:44:31;99569.75;;;5.99;74.54
77159;BME280;66129;45.890;13.714;2023-01-16T07:46:57;99586.03;;;6.09;74.95
77159;BME280;66129;45.890;13.714;2023-01-16T07:49:23;99551.78;;;5.90;75.12
77159;BME280;66129;45.890;13.714;2023-01-16T07:51:48;99544.09;;;5.89;74.68
77159;BME280;66129;45.890;13.714;2023-01-16T07:54:14;99544.09;;;5.89;74.29
77159;BME280;66129;45.890;13.714;2023-01-16T07:56:39;99561.25;;;5.99;74.90
77159;BME280;66129;45.890;13.714;2023-01-16T07:59:05;99570.00;;;6.13;74.15
77159;BME280;66129;45.890;13.714;2023-01-16T08:01:31;99569.91;;;6.08;74.03
77159;BME280;66129;45.890;13.714;2023-01-16T08:03:57;99554.53;;;6.01;74.21
77159;BME280;66129;45.890;13.714;2023-01-16T08:06:23;99570.03;;;6.14;74.14
77159;BME280;66129;45.890;13.714;2023-01-16T08:08:49;99553.81;;;6.08;74.13
77159;BME280;66129;45.890;13.714;2023-01-16T08:11:15;99535.84;;;6.00;73.64
77159;BME280;66129;45.890;13.714;2023-01-16T08:13:59;99564.09;;;6.14;73.95
77159;BME280;66129;45.890;13.714;2023-01-16T08:16:24;99552.91;;;6.06;74.17
77159;BME280;66129;45.890;13.714;2023-01-16T08:18:50;99528.00;;;5.88;74.54
77159;BME280;66129;45.890;13.714;2023-01-16T08:21:16;99561.31;;;6.02;75.84
77159;BME280;66129;45.890;13.714;2023-01-16T08:23:42;99539.06;;;5.90;75.55
77159;BME280;66129;45.890;13.714;2023-01-16T08:26:08;99533.78;;;5.80;75.47
77159;BME280;66129;45.890;13.714;2023-01-16T08:28:33;99550.03;;;5.88;76.18
77159;BME280;66129;45.890;13.714;2023-01-16T08:31:10;99545.63;;;5.79;76.08
77159;BME280;66129;45.890;13.714;2023-01-16T08:33:38;99537.78;;;5.69;77.06
77159;BME280;66129;45.890;13.714;2023-01-16T08:36:06;99547.94;;;5.69;77.51
77159;BME280;66129;45.890;13.714;2023-01-16T08:38:31;99545.34;;;5.66;77.37
77159;BME280;66129;45.890;13.714;2023-01-16T08:40:57;99551.50;;;5.77;76.87
77159;BME280;66129;45.890;13.714;2023-01-16T08:43:23;99549.66;;;5.68;77.74
77159;BME280;66129;45.890;13.714;2023-01-16T08:49:02;99578.69;;;5.79;77.86
77159;BME280;66129;45.890;13.714;2023-01-16T08:51:46;99568.41;;;5.76;77.32
77159;BME280;66129;45.890;13.714;2023-01-16T08:54:12;99575.97;;;5.73;77.81
77159;BME280;66129;45.890;13.714;2023-01-16T08:56:37;99548.50;;;5.53;79.01
77159;BME280;66129;45.890;13.714;2023-01-16T08:59:09;99564.09;;;5.71;79.02
77159;BME280;66129;45.890;13.714;2023-01-16T09:01:36;99563.28;;;5.73;77.43
77159;BME280;66129;45.890;13.714;2023-01-16T09:04:02;99552.19;;;5.70;78.63
77159;BME280;66129;45.890;13.714;2023-01-16T09:06:27;99554.81;;;5.74;78.18
77159;BME280;66129;45.890;13.714;2023-01-16T09:08:52;99548.09;;;5.76;77.03
77159;BME280;66129;45.890;13.714;2023-01-16T09:11:18;99542.09;;;5.73;77.44
77159;BME280;66129;45.890;13.714;2023-01-16T09:14:02;99537.91;;;5.75;77.12
77159;BME280;66129;45.890;13.714;2023-01-16T09:16:27;99532.81;;;5.76;76.44
77159;BME280;66129;45.890;13.714;2023-01-16T09:18:53;99536.34;;;5.81;76.43
77159;BME280;66129;45.890;13.714;2023-01-16T09:21:19;99528.78;;;5.83;76.33
77159;BME280;66129;45.890;13.714;2023-01-16T09:23:45;99524.53;;;5.83;76.23
77159;BME280;66129;45.890;13.714;2023-01-16T09:26:11;99515.19;;;5.82;75.91
77159;BME280;66129;45.890;13.714;2023-01-16T09:28:37;99516.25;;;5.93;74.91
77159;BME280;66129;45.890;13.714;2023-01-16T09:31:02;99519.66;;;5.95;74.76
77159;BME280;66129;45.890;13.714;2023-01-16T09:33:27;99520.50;;;5.96;74.78
77159;BME280;66129;45.890;13.714;2023-01-16T09:35:53;99517.19;;;6.00;74.48
77159;BME280;66129;45.890;13.714;2023-01-16T09:38:18;99510.47;;;6.03;74.15
77159;BME280;66129;45.890;13.714;2023-01-16T09:40:46;99511.41;;;6.08;73.85
77159;BME280;66129;45.890;13.714;2023-01-16T09:43:33;99502.06;;;6.07;73.69
77159;BME280;66129;45.890;13.714;2023-01-16T09:46:18;99498.69;;;6.08;73.61
77159;BME280;66129;45.890;13.714;2023-01-16T09:48:55;99504.66;;;6.10;73.45
77159;BME280;66129;45.890;13.714;2023-01-16T09:51:39;99487.78;;;6.15;72.88
77159;BME280;66129;45.890;13.714;2023-01-16T09:54:11;99483.66;;;6.22;72.72
77159;BME280;66129;45.890;13.714;2023-01-16T09:56:59;99490.59;;;6.32;71.00
77159;BME280;66129;45.890;13.714;2023-01-16T09:59:53;99479.78;;;6.45;69.74
77159;BME280;66129;45.890;13.714;2023-01-16T10:02:27;99478.16;;;6.50;71.12
77159;BME280;66129;45.890;13.714;2023-01-16T10:04:55;99475.69;;;6.56;70.67
77159;BME280;66129;45.890;13.714;2023-01-16T10:07:40;99469.78;;;6.57;70.20
77159;BME280;66129;45.890;13.714;2023-01-16T10:12:36;99460.47;;;6.57;70.10
77159;BME280;66129;45.890;13.714;2023-01-16T10:18:25;99451.13;;;6.56;70.13
77159;BME280;66129;45.890;13.714;2023-01-16T10:21:08;99442.56;;;6.51;69.90
77159;BME280;66129;45.890;13.714;2023-01-16T10:29:31;99441.88;;;6.62;69.49
77159;BME280;66129;45.890;13.714;2023-01-16T10:32:04;99412.84;;;6.52;70.30
77159;BME280;66129;45.890;13.714;2023-01-16T10:37:00;99429.44;;;6.85;69.09
77159;BME280;66129;45.890;13.714;2023-01-16T10:39:31;99412.47;;;6.84;69.33
77159;BME280;66129;45.890;13.714;2023-01-16T10:42:15;99419.34;;;6.94;69.22
77159;BME280;66129;45.890;13.714;2023-01-16T10:45:16;99413.38;;;6.92;68.59
77159;BME280;66129;45.890;13.714;2023-01-16T10:48:02;99408.19;;;6.84;67.81
77159;BME280;66129;45.890;13.714;2023-01-16T10:50:46;99415.72;;;6.74;67.95
77159;BME280;66129;45.890;13.714;2023-01-16T10:53:12;99396.69;;;6.48;68.17
77159;BME280;66129;45.890;13.714;2023-01-16T10:55:41;99403.44;;;6.46;69.56
77159;BME280;66129;45.890;13.714;2023-01-16T10:58:25;99396.56;;;6.39;69.80
77159;BME280;66129;45.890;13.714;2023-01-16T11:00:53;99393.19;;;6.39;71.08
77159;BME280;66129;45.890;13.714;2023-01-16T11:03:37;99378.59;;;6.29;70.59
77159;BME280;66129;45.890;13.714;2023-01-16T11:08:49;99411.91;;;6.45;70.00
77159;BME280;66129;45.890;13.714;2023-01-16T11:11:17;99389.66;;;6.31;69.78
77159;BME280;66129;45.890;13.714;2023-01-16T11:14:10;99398.28;;;6.40;69.81
77159;BME280;66129;45.890;13.714;2023-01-16T11:16:55;99401.66;;;6.39;69.40
77159;BME280;66129;45.890;13.714;2023-01-16T11:19:45;99385.63;;;6.45;69.42
77159;BME280;66129;45.890;13.714;2023-01-16T11:22:39;99386.41;;;6.41;68.24
77159;BME280;66129;45.890;13.714;2023-01-16T11:25:05;99371.09;;;6.38;68.86
77159;BME280;66129;45.890;13.714;2023-01-16T11:27:34;99377.13;;;6.46;68.88
77159;BME280;66129;45.890;13.714;2023-01-16T11:30:05;99379.88;;;6.59;67.98
77159;BME280;66129;45.890;13.714;2023-01-16T11:32:34;99377.47;;;6.69;68.66
77159;BME280;66129;45.890;13.714;2023-01-16T11:35:10;99368.91;;;6.66;68.79
77159;BME280;66129;45.890;13.714;2023-01-16T11:37:37;99343.38;;;6.58;67.78
77159;BME280;66129;45.890;13.714;2023-01-16T11:40:04;99332.41;;;6.64;66.98
77159;BME280;66129;45.890;13.714;2023-01-16T11:42:32;99352.69;;;6.57;68.14
77159;BME280;66129;45.890;13.714;2023-01-16T11:45:19;99365.31;;;6.51;68.83
77159;BME280;66129;45.890;13.714;2023-01-16T11:48:18;99374.41;;;6.31;69.18
77159;BME280;66129;45.890;13.714;2023-01-16T11:50:55;99343.63;;;6.16;68.84
77159;BME280;66129;45.890;13.714;2023-01-16T11:53:20;99345.56;;;6.32;69.33
77159;BME280;66129;45.890;13.714;2023-01-16T12:07:43;99312.47;;;6.30;74.91
77159;BME280;66129;45.890;13.714;2023-01-16T12:12:48;99272.28;;;6.05;77.24
77159;BME280;66129;45.890;13.714;2023-01-16T12:19:00;99269.63;;;5.96;76.61
77159;BME280;66129;45.890;13.714;2023-01-16T12:21:34;99278.88;;;5.93;77.19
77159;BME280;66129;45.890;13.714;2023-01-16T12:27:19;99279.84;;;6.02;76.40
77159;BME280;66129;45.890;13.714;2023-01-16T12:35:23;99224.91;;;6.15;74.56
77159;BME280;66129;45.890;13.714;2023-01-16T12:38:14;99255.91;;;6.52;75.52
77159;BME280;66129;45.890;13.714;2023-01-16T12:54:09;99215.44;;;6.77;72.35
77159;BME280;66129;45.890;13.714;2023-01-16T12:59:36;99188.94;;;6.57;73.47
77159;BME280;66129;45.890;13.714;2023-01-16T13:04:44;99212.22;;;6.95;72.46
77159;BME280;66129;45.890;13.714;2023-01-16T13:07:16;99216.56;;;7.03;72.59
77159;BME280;66129;45.890;13.714;2023-01-16T13:09:52;99213.97;;;7.02;71.96
77159;BME280;66129;45.890;13.714;2023-01-16T13:12:41;99213.88;;;6.91;71.71
77159;BME280;66129;45.890;13.714;2023-01-16T13:15:29;99195.22;;;6.94;71.68
77159;BME280;66129;45.890;13.714;2023-01-16T13:20:29;99199.00;;;7.41;70.03
77159;BME280;66129;45.890;13.714;2023-01-16T13:23:03;99194.09;;;7.70;70.07
77159;BME280;66129;45.890;13.714;2023-01-16T13:25:41;99176.31;;;7.88;70.08
77159;BME280;66129;45.890;13.714;2023-01-16T13:33:57;99186.53;;;7.88;69.61
77159;BME280;66129;45.890;13.714;2023-01-16T13:41:58;99195.56;;;7.34;71.44
77159;BME280;66129;45.890;13.714;2023-01-16T13:44:28;99176.00;;;7.32;71.27
77159;BME280;66129;45.890;13.714;2023-01-16T13:47:19;99166.50;;;7.14;71.67
77159;BME280;66129;45.890;13.714;2023-01-16T13:49:51;99173.34;;;7.18;71.59
77159;BME280;66129;45.890;13.714;2023-01-16T13:52:21;99182.81;;;7.31;72.20
77159;BME280;66129;45.890;13.714;2023-01-16T13:54:48;99176.84;;;7.31;72.61
77159;BME280;66129;45.890;13.714;2023-01-16T13:57:20;99165.88;;;7.41;73.13
77159;BME280;66129;45.890;13.714;2023-01-16T13:59:49;99157.41;;;7.48;72.40
77159;BME280;66129;45.890;13.714;2023-01-16T14:10:40;99169.47;;;7.72;72.07
77159;BME280;66129;45.890;13.714;2023-01-16T14:15:54;99144.72;;;7.60;72.36
77159;BME280;66129;45.890;13.714;2023-01-16T14:18:58;99161.81;;;7.75;72.50
77159;BME280;66129;45.890;13.714;2023-01-16T14:24:24;99134.50;;;7.57;73.68
77159;BME280;66129;45.890;13.714;2023-01-16T14:26:56;99156.56;;;7.52;73.00
77159;BME280;66129;45.890;13.714;2023-01-16T14:29:24;99162.53;;;7.52;74.29
77159;BME280;66129;45.890;13.714;2023-01-16T14:34:21;99125.97;;;7.46;75.11
77159;BME280;66129;45.890;13.714;2023-01-16T14:36:50;99082.56;;;7.32;74.55
77159;BME280;66129;45.890;13.714;2023-01-16T14:39:49;99101.31;;;7.45;75.44
77159;BME280;66129;45.890;13.714;2023-01-16T14:42:19;99083.31;;;7.21;75.50
77159;BME280;66129;45.890;13.714;2023-01-16T14:51:17;99076.47;;;7.12;76.36
77159;BME280;66129;45.890;13.714;2023-01-16T14:54:08;99061.97;;;7.01;76.57
77159;BME280;66129;45.890;13.714;2023-01-16T14:56:59;99061.13;;;7.02;76.12
77159;BME280;66129;45.890;13.714;2023-01-16T14:59:34;99081.56;;;7.09;76.69
77159;BME280;66129;45.890;13.714;2023-01-16T15:02:23;99053.44;;;6.93;77.05
77159;BME280;66129;45.890;13.714;2023-01-16T15:05:07;99082.44;;;7.14;77.34
77159;BME280;66129;45.890;13.714;2023-01-16T15:07:50;99072.25;;;7.13;76.80
77159;BME280;66129;45.890;13.714;2023-01-16T15:10:28;99064.56;;;7.04;77.83
77159;BME280;66129;45.890;13.714;2023-01-16T15:13:12;99065.38;;;6.98;77.73
77159;BME280;66129;45.890;13.714;2023-01-16T15:15:41;99061.06;;;6.93;77.78
77159;BME280;66129;45.890;13.714;2023-01-16T15:18:13;99042.38;;;6.85;77.95
77159;BME280;66129;45.890;13.714;2023-01-16T15:20:59;99048.34;;;6.91;78.38
77159;BME280;66129;45.890;13.714;2023-01-16T15:23:44;99062.78;;;6.94;78.97
77159;BME280;66129;45.890;13.714;2023-01-16T15:26:24;99071.25;;;6.93;78.99
77159;BME280;66129;45.890;13.714;2023-01-16T15:28:57;99073.97;;;7.14;78.13
77159;BME280;66129;45.890;13.714;2023-01-16T15:31:31;99073.97;;;7.20;78.29
77159;BME280;66129;45.890;13.714;2023-01-16T15:34:18;99032.25;;;6.97;77.91
77159;BME280;66129;45.890;13.714;2023-01-16T15:36:46;99040.75;;;6.99;77.83
77159;BME280;66129;45.890;13.714;2023-01-16T15:39:38;99072.28;;;7.17;78.76
77159;BME280;66129;45.890;13.714;2023-01-16T15:42:25;99040.72;;;6.96;80.14
77159;BME280;66129;45.890;13.714;2023-01-16T15:48:30;99048.25;;;6.79;81.71